Terminal Aerodrome Forecast
Issued by NWS

Home | Current Version | Previous Version | Graphics & Text | Print | Product List | Glossary On
Versions: 1 2 3 4 5 6 7 8 9 10 11 12 13 14 15 16 17 18 19 20 21 22
000
FTUS43 KOAX 251739
TAFCDR
TAF
KCDR 251739Z 2518/2618 04015G25KT 5SM -SN BR OVC022
      TEMPO 2518/2521 1SM -SN BR OVC015
     FM252100 03017KT P6SM OVC025
      TEMPO 2521/2524 3SM -SN OVC015
     FM260000 04013KT P6SM OVC015
     FM260400 06005KT 2SM BR OVC015
     FM261500 07007KT P6SM OVC025=

USA.gov is the U.S. government's official web portal to all federal, state and local government web resources and services.